CheckWX is a tool to help pilots better visualize weather data.  It is not intended as a substitute for an official pre-flight weather briefing.

12:21:30 UTC

CYKJ METAR
Key Lake Airport
Key Lake, Saskatchewan, Canada
Current

21 mins ago

CYKJ 181201Z AUTO 17002KT 6SM HZ CLR M40/M44 A3041 RMK SLP378
Observed
Feb-18 @ 12:01 UTC
Wind
  • 170° at 2 KTS
Visibility
6 SM
Flight Rules
VFR
Conditions
Haze
Cloud Levels
  • Clear skies
Temperature
-40°C / -40°F
Dewpoint
-44°C / -47°F
Humidity
65%
Altimeter
30.41" Hg
Pressure
1037.8 hPa
Previous

26 mins ago

CYKJ 181156Z AUTO 17002KT 3SM HZ CLR M40/M45 A3041 RMK SLP378
Observed
Feb-18 @ 11:56 UTC
Wind
  • 170° at 2 KTS
Visibility
3 SM
Flight Rules
MVFR
Conditions
Haze
Cloud Levels
  • Clear skies
Temperature
-40°C / -40°F
Dewpoint
-45°C / -49°F
Humidity
58%
Altimeter
30.41" Hg
Pressure
1037.8 hPa
Previous

56 mins ago

CYKJ 181126Z AUTO 21002KT 1 3/4SM HZ CLR M40/M45 A3043 RMK SLP384
Observed
Feb-18 @ 11:26 UTC
Wind
  • 210° at 2 KTS
Visibility
1 3/4 SM
Flight Rules
IFR
Conditions
Haze
Cloud Levels
  • Clear skies
Temperature
-40°C / -40°F
Dewpoint
-45°C / -49°F
Humidity
58%
Altimeter
30.43" Hg
Pressure
1038.4 hPa